Terminal Aerodrome Forecast
Issued by NWS

Home | Current Version | Previous Version | Text Only | Print | Product List | Glossary On
Versions: 1 2 3 4 5 6 7 8 9 10 11 12
000
FTUS45 KABQ 302300
TAFSAF
TAF
KSAF 302327Z 3100/3124 32010G18KT P6SM VCSH BKN100 BKN200
     FM310200 01010KT P6SM SCT120 SCT200
     FM311300 36015KT P6SM SCT200
     FM312000 27010G18KT P6SM SCT100 SCT200=

USA.gov is the U.S. government's official web portal to all federal, state and local government web resources and services.